sensor_id;sensor_type;location;lat;lon;timestamp;pressure;altitude;pressure_sealevel;temperature;humidity
49104;BME280;34915;52.926;11.116;2023-04-08T00:01:49;102220.34;;;5.96;100.00
49104;BME280;34915;52.926;11.116;2023-04-08T00:04:14;102208.81;;;6.02;100.00
49104;BME280;34915;52.926;11.116;2023-04-08T00:06:40;102209.75;;;5.99;100.00
49104;BME280;34915;52.926;11.116;2023-04-08T00:09:06;102203.94;;;5.88;100.00
49104;BME280;34915;52.926;11.116;2023-04-08T00:11:31;102199.75;;;5.82;100.00
49104;BME280;34915;52.926;11.116;2023-04-08T00:13:57;102204.94;;;5.85;100.00
49104;BME280;34915;52.926;11.116;2023-04-08T00:16:24;102205.28;;;6.03;100.00
49104;BME280;34915;52.926;11.116;2023-04-08T00:18:49;102195.78;;;5.97;100.00
49104;BME280;34915;52.926;11.116;2023-04-08T00:21:15;102199.56;;;5.88;100.00
49104;BME280;34915;52.926;11.116;2023-04-08T00:23:42;102199.56;;;5.88;100.00
49104;BME280;34915;52.926;11.116;2023-04-08T00:26:08;102196.13;;;5.86;100.00
49104;BME280;34915;52.926;11.116;2023-04-08T00:28:33;102191.19;;;5.74;100.00
49104;BME280;34915;52.926;11.116;2023-04-08T00:30:59;102196.44;;;5.75;100.00
49104;BME280;34915;52.926;11.116;2023-04-08T00:33:25;102201.50;;;5.83;100.00
49104;BME280;34915;52.926;11.116;2023-04-08T00:35:50;102202.28;;;5.85;100.00
49104;BME280;34915;52.926;11.116;2023-04-08T00:38:16;102206.47;;;5.91;100.00
49104;BME280;34915;52.926;11.116;2023-04-08T00:40:42;102199.66;;;5.85;100.00
49104;BME280;34915;52.926;11.116;2023-04-08T00:43:07;102194.50;;;5.82;100.00
49104;BME280;34915;52.926;11.116;2023-04-08T00:45:33;102198.91;;;5.81;100.00
49104;BME280;34915;52.926;11.116;2023-04-08T00:47:58;102205.00;;;5.82;100.00
49104;BME280;34915;52.926;11.116;2023-04-08T00:50:25;102206.31;;;5.97;100.00
49104;BME280;34915;52.926;11.116;2023-04-08T00:52:50;102207.94;;;6.01;100.00
49104;BME280;34915;52.926;11.116;2023-04-08T00:55:16;102210.44;;;6.06;100.00
49104;BME280;34915;52.926;11.116;2023-04-08T00:57:41;102197.16;;;6.10;100.00
49104;BME280;34915;52.926;11.116;2023-04-08T01:00:07;102199.22;;;5.99;100.00
49104;BME280;34915;52.926;11.116;2023-04-08T01:05:29;102198.84;;;6.11;100.00
49104;BME280;34915;52.926;11.116;2023-04-08T01:07:59;102207.16;;;5.98;100.00
49104;BME280;34915;52.926;11.116;2023-04-08T01:10:32;102201.94;;;5.96;100.00
49104;BME280;34915;52.926;11.116;2023-04-08T01:13:02;102210.75;;;5.95;100.00
49104;BME280;34915;52.926;11.116;2023-04-08T01:15:29;102204.47;;;5.99;100.00
49104;BME280;34915;52.926;11.116;2023-04-08T01:17:56;102216.66;;;6.03;100.00
49104;BME280;34915;52.926;11.116;2023-04-08T01:20:24;102217.22;;;6.13;100.00
49104;BME280;34915;52.926;11.116;2023-04-08T01:25:31;102216.47;;;6.09;100.00
49104;BME280;34915;52.926;11.116;2023-04-08T01:27:59;102215.63;;;6.09;100.00
49104;BME280;34915;52.926;11.116;2023-04-08T01:30:27;102207.69;;;6.10;100.00
49104;BME280;34915;52.926;11.116;2023-04-08T01:32:55;102204.38;;;6.02;100.00
49104;BME280;34915;52.926;11.116;2023-04-08T01:35:21;102204.56;;;5.96;100.00
49104;BME280;34915;52.926;11.116;2023-04-08T01:37:49;102206.22;;;6.00;100.00
49104;BME280;34915;52.926;11.116;2023-04-08T01:40:16;102204.47;;;5.99;100.00
49104;BME280;34915;52.926;11.116;2023-04-08T01:42:44;102206.31;;;5.97;100.00
49104;BME280;34915;52.926;11.116;2023-04-08T01:45:10;102212.84;;;6.13;100.00
49104;BME280;34915;52.926;11.116;2023-04-08T01:47:37;102216.47;;;6.09;100.00
49104;BME280;34915;52.926;11.116;2023-04-08T01:50:08;102211.19;;;6.09;100.00
49104;BME280;34915;52.926;11.116;2023-04-08T01:52:34;102213.03;;;6.07;100.00
49104;BME280;34915;52.926;11.116;2023-04-08T01:55:02;102216.56;;;6.06;100.00
49104;BME280;34915;52.926;11.116;2023-04-08T01:57:31;102220.59;;;6.18;100.00
49104;BME280;34915;52.926;11.116;2023-04-08T02:00:05;102214.72;;;6.08;100.00
49104;BME280;34915;52.926;11.116;2023-04-08T02:02:32;102203.97;;;6.17;100.00
49104;BME280;34915;52.926;11.116;2023-04-08T02:05:00;102209.47;;;6.08;100.00
49104;BME280;34915;52.926;11.116;2023-04-08T02:07:26;102211.47;;;6.00;100.00
49104;BME280;34915;52.926;11.116;2023-04-08T02:09:51;102184.72;;;6.15;100.00
49104;BME280;34915;52.926;11.116;2023-04-08T02:12:17;102181.56;;;6.04;100.00
49104;BME280;34915;52.926;11.116;2023-04-08T02:14:43;102191.47;;;5.95;100.00
49104;BME280;34915;52.926;11.116;2023-04-08T02:17:12;102188.69;;;5.99;100.00
49104;BME280;34915;52.926;11.116;2023-04-08T02:19:45;102187.00;;;5.98;100.00
49104;BME280;34915;52.926;11.116;2023-04-08T02:22:28;102185.75;;;6.10;100.00
49104;BME280;34915;52.926;11.116;2023-04-08T02:24:55;102199.03;;;6.05;100.00
49104;BME280;34915;52.926;11.116;2023-04-08T02:27:23;102207.84;;;6.04;100.00
49104;BME280;34915;52.926;11.116;2023-04-08T02:29:52;102208.72;;;6.05;100.00
49104;BME280;34915;52.926;11.116;2023-04-08T02:32:20;102207.84;;;6.04;100.00
49104;BME280;34915;52.926;11.116;2023-04-08T02:34:48;102205.66;;;6.18;100.00
49104;BME280;34915;52.926;11.116;2023-04-08T02:37:15;102208.09;;;6.24;100.00
49104;BME280;34915;52.926;11.116;2023-04-08T02:39:40;102216.41;;;6.11;100.00
49104;BME280;34915;52.926;11.116;2023-04-08T02:42:06;102217.66;;;6.28;100.00
49104;BME280;34915;52.926;11.116;2023-04-08T02:44:31;102220.81;;;6.10;100.00
49104;BME280;34915;52.926;11.116;2023-04-08T02:46:57;102225.16;;;6.11;100.00
49104;BME280;34915;52.926;11.116;2023-04-08T02:49:22;102223.19;;;6.19;100.00
49104;BME280;34915;52.926;11.116;2023-04-08T02:51:48;102228.25;;;6.25;100.00
49104;BME280;34915;52.926;11.116;2023-04-08T02:54:13;102232.72;;;6.23;100.00
49104;BME280;34915;52.926;11.116;2023-04-08T02:56:39;102228.34;;;6.22;100.00
49104;BME280;34915;52.926;11.116;2023-04-08T02:59:06;102224.66;;;6.29;100.00
49104;BME280;34915;52.926;11.116;2023-04-08T03:01:31;102221.06;;;6.30;100.00
49104;BME280;34915;52.926;11.116;2023-04-08T03:03:57;102216.09;;;6.21;100.00
49104;BME280;34915;52.926;11.116;2023-04-08T03:06:22;102216.38;;;6.12;100.00
49104;BME280;34915;52.926;11.116;2023-04-08T03:08:48;102227.88;;;6.08;100.00
49104;BME280;34915;52.926;11.116;2023-04-08T03:11:13;102227.88;;;6.08;100.00
49104;BME280;34915;52.926;11.116;2023-04-08T03:13:39;102236.03;;;5.99;100.00
49104;BME280;34915;52.926;11.116;2023-04-08T03:16:05;102239.59;;;5.98;100.00
49104;BME280;34915;52.926;11.116;2023-04-08T03:18:30;102239.31;;;6.07;100.00
49104;BME280;34915;52.926;11.116;2023-04-08T03:20:56;102242.94;;;6.03;100.00
49104;BME280;34915;52.926;11.116;2023-04-08T03:23:22;102237.69;;;6.03;100.00
49104;BME280;34915;52.926;11.116;2023-04-08T03:25:47;102239.31;;;6.07;100.00
49104;BME280;34915;52.926;11.116;2023-04-08T03:28:13;102240.53;;;5.96;100.00
49104;BME280;34915;52.926;11.116;2023-04-08T03:30:38;102247.41;;;6.01;100.00
49104;BME280;34915;52.926;11.116;2023-04-08T03:33:04;102232.56;;;5.99;100.00
49104;BME280;34915;52.926;11.116;2023-04-08T03:35:32;102227.44;;;5.94;100.00
49104;BME280;34915;52.926;11.116;2023-04-08T03:37:58;102239.47;;;6.03;100.00
49104;BME280;34915;52.926;11.116;2023-04-08T03:40:23;102228.72;;;6.10;100.00
49104;BME280;34915;52.926;11.116;2023-04-08T03:42:49;102234.97;;;6.06;100.00
49104;BME280;34915;52.926;11.116;2023-04-08T03:45:15;102241.22;;;6.02;100.00
49104;BME280;34915;52.926;11.116;2023-04-08T03:47:40;102240.56;;;5.94;100.00
49104;BME280;34915;52.926;11.116;2023-04-08T03:50:06;102242.47;;;5.89;100.00
49104;BME280;34915;52.926;11.116;2023-04-08T03:52:32;102253.22;;;5.81;100.00
49104;BME280;34915;52.926;11.116;2023-04-08T03:54:57;102247.16;;;5.79;100.00
49104;BME280;34915;52.926;11.116;2023-04-08T03:57:23;102261.03;;;5.84;100.00
49104;BME280;34915;52.926;11.116;2023-04-08T03:59:48;102257.00;;;6.02;100.00
49104;BME280;34915;52.926;11.116;2023-04-08T04:02:14;102262.69;;;5.88;100.00
49104;BME280;34915;52.926;11.116;2023-04-08T04:04:40;102266.13;;;5.89;100.00
49104;BME280;34915;52.926;11.116;2023-04-08T04:07:05;102262.44;;;5.96;100.00
49104;BME280;34915;52.926;11.116;2023-04-08T04:09:31;102276.56;;;5.92;100.00
49104;BME280;34915;52.926;11.116;2023-04-08T04:12:00;102273.19;;;5.88;100.00
49104;BME280;34915;52.926;11.116;2023-04-08T04:14:28;102280.13;;;5.91;100.00
49104;BME280;34915;52.926;11.116;2023-04-08T04:16:53;102269.16;;;6.06;100.00
49104;BME280;34915;52.926;11.116;2023-04-08T04:19:19;102290.38;;;6.00;100.00
49104;BME280;34915;52.926;11.116;2023-04-08T04:21:44;102292.03;;;6.04;100.00
49104;BME280;34915;52.926;11.116;2023-04-08T04:24:10;102289.31;;;6.07;100.00
49104;BME280;34915;52.926;11.116;2023-04-08T04:26:36;102288.56;;;6.02;100.00
49104;BME280;34915;52.926;11.116;2023-04-08T04:29:01;102292.19;;;5.98;100.00
49104;BME280;34915;52.926;11.116;2023-04-08T04:31:27;102293.91;;;5.99;100.00
49104;BME280;34915;52.926;11.116;2023-04-08T04:33:53;102291.44;;;5.93;100.00
49104;BME280;34915;52.926;11.116;2023-04-08T04:36:18;102290.53;;;5.94;100.00
49104;BME280;34915;52.926;11.116;2023-04-08T04:38:44;102299.16;;;5.99;100.00
49104;BME280;34915;52.926;11.116;2023-04-08T04:41:10;102312.69;;;5.86;100.00
49104;BME280;34915;52.926;11.116;2023-04-08T04:43:36;102313.16;;;6.01;100.00
49104;BME280;34915;52.926;11.116;2023-04-08T04:46:02;102310.69;;;5.94;100.00
49104;BME280;34915;52.926;11.116;2023-04-08T04:48:28;102310.44;;;6.04;100.00
49104;BME280;34915;52.926;11.116;2023-04-08T04:50:57;102308.06;;;5.95;100.00
49104;BME280;34915;52.926;11.116;2023-04-08T04:53:23;102309.72;;;5.98;100.00
49104;BME280;34915;52.926;11.116;2023-04-08T04:55:52;102303.09;;;5.84;100.00
49104;BME280;34915;52.926;11.116;2023-04-08T04:58:18;102301.16;;;5.91;100.00
49104;BME280;34915;52.926;11.116;2023-04-08T05:00:44;102305.66;;;5.87;100.00
49104;BME280;34915;52.926;11.116;2023-04-08T05:03:13;102310.81;;;5.89;100.00
49104;BME280;34915;52.926;11.116;2023-04-08T05:05:39;102313.31;;;5.95;100.00
49104;BME280;34915;52.926;11.116;2023-04-08T05:08:05;102315.19;;;5.90;100.00
49104;BME280;34915;52.926;11.116;2023-04-08T05:10:32;102305.44;;;5.95;100.00
49104;BME280;34915;52.926;11.116;2023-04-08T05:12:57;102308.28;;;5.87;100.00
49104;BME280;34915;52.926;11.116;2023-04-08T05:15:23;102313.53;;;5.87;100.00
49104;BME280;34915;52.926;11.116;2023-04-08T05:17:48;102320.69;;;5.82;100.00
49104;BME280;34915;52.926;11.116;2023-04-08T05:20:14;102326.84;;;5.81;100.00
49104;BME280;34915;52.926;11.116;2023-04-08T05:22:40;102321.91;;;6.02;100.00
49104;BME280;34915;52.926;11.116;2023-04-08T05:25:07;102328.16;;;5.96;100.00
49104;BME280;34915;52.926;11.116;2023-04-08T05:27:32;102329.09;;;5.95;100.00
49104;BME280;34915;52.926;11.116;2023-04-08T05:29:58;102337.97;;;5.91;100.00
49104;BME280;34915;52.926;11.116;2023-04-08T05:32:23;102335.34;;;5.91;100.00
49104;BME280;34915;52.926;11.116;2023-04-08T05:34:49;102335.38;;;5.90;100.00
49104;BME280;34915;52.926;11.116;2023-04-08T05:37:15;102341.41;;;5.93;100.00
49104;BME280;34915;52.926;11.116;2023-04-08T05:39:40;102350.34;;;5.87;100.00
49104;BME280;34915;52.926;11.116;2023-04-08T05:42:06;102348.50;;;5.91;100.00
49104;BME280;34915;52.926;11.116;2023-04-08T05:44:32;102341.56;;;5.88;100.00
49104;BME280;34915;52.926;11.116;2023-04-08T05:46:58;102343.31;;;5.88;100.00
49104;BME280;34915;52.926;11.116;2023-04-08T05:49:24;102356.94;;;6.02;100.00
49104;BME280;34915;52.926;11.116;2023-04-08T05:51:50;102347.22;;;6.06;100.00
49104;BME280;34915;52.926;11.116;2023-04-08T05:54:15;102350.88;;;6.00;100.00
49104;BME280;34915;52.926;11.116;2023-04-08T05:56:41;102349.03;;;6.02;100.00
49104;BME280;34915;52.926;11.116;2023-04-08T05:59:06;102347.09;;;6.10;100.00
49104;BME280;34915;52.926;11.116;2023-04-08T06:01:32;102358.75;;;6.00;100.00
49104;BME280;34915;52.926;11.116;2023-04-08T06:03:57;102359.78;;;5.95;100.00
49104;BME280;34915;52.926;11.116;2023-04-08T06:06:23;102355.41;;;5.95;100.00
49104;BME280;34915;52.926;11.116;2023-04-08T06:08:50;102357.75;;;6.06;100.00
49104;BME280;34915;52.926;11.116;2023-04-08T06:11:15;102352.28;;;6.13;100.00
49104;BME280;34915;52.926;11.116;2023-04-08T06:13:41;102354.66;;;6.22;100.00
49104;BME280;34915;52.926;11.116;2023-04-08T06:16:12;102360.00;;;6.19;100.00
49104;BME280;34915;52.926;11.116;2023-04-08T06:18:37;102358.34;;;6.15;100.00
49104;BME280;34915;52.926;11.116;2023-04-08T06:21:03;102367.47;;;6.02;100.00
49104;BME280;34915;52.926;11.116;2023-04-08T06:23:29;102364.69;;;6.07;100.00
49104;BME280;34915;52.926;11.116;2023-04-08T06:25:54;102364.41;;;6.19;100.00
49104;BME280;34915;52.926;11.116;2023-04-08T06:28:20;102377.72;;;6.11;100.00
49104;BME280;34915;52.926;11.116;2023-04-08T06:30:45;102376.03;;;6.10;100.00
49104;BME280;34915;52.926;11.116;2023-04-08T06:33:11;102376.03;;;6.10;100.00
49104;BME280;34915;52.926;11.116;2023-04-08T06:35:37;102383.25;;;6.02;100.00
49104;BME280;34915;52.926;11.116;2023-04-08T06:38:03;102384.97;;;6.03;100.00
49104;BME280;34915;52.926;11.116;2023-04-08T06:40:28;102381.63;;;5.98;100.00
49104;BME280;34915;52.926;11.116;2023-04-08T06:42:54;102393.50;;;6.11;100.00
49104;BME280;34915;52.926;11.116;2023-04-08T06:45:20;102390.16;;;6.06;100.00
49104;BME280;34915;52.926;11.116;2023-04-08T06:47:45;102396.00;;;6.17;100.00
49104;BME280;34915;52.926;11.116;2023-04-08T06:50:11;102395.09;;;6.18;100.00
49104;BME280;34915;52.926;11.116;2023-04-08T06:52:37;102393.69;;;6.05;100.00
49104;BME280;34915;52.926;11.116;2023-04-08T06:55:02;102406.44;;;6.20;100.00
49104;BME280;34915;52.926;11.116;2023-04-08T06:57:28;102404.97;;;6.10;100.00
49104;BME280;34915;52.926;11.116;2023-04-08T06:59:53;102407.34;;;6.19;100.00
49104;BME280;34915;52.926;11.116;2023-04-08T07:02:20;102407.19;;;6.25;100.00
49104;BME280;34915;52.926;11.116;2023-04-08T07:04:47;102416.06;;;6.21;100.00
49104;BME280;34915;52.926;11.116;2023-04-08T07:07:13;102414.09;;;6.29;100.00
49104;BME280;34915;52.926;11.116;2023-04-08T07:09:38;102416.69;;;6.31;100.00
49104;BME280;34915;52.926;11.116;2023-04-08T07:12:05;102412.03;;;6.40;100.00
49104;BME280;34915;52.926;11.116;2023-04-08T07:14:31;102415.53;;;6.39;100.00
49104;BME280;34915;52.926;11.116;2023-04-08T07:16:57;102422.63;;;6.37;100.00
49104;BME280;34915;52.926;11.116;2023-04-08T07:19:22;102427.56;;;6.49;100.00
49104;BME280;34915;52.926;11.116;2023-04-08T07:21:48;102429.47;;;6.44;100.00
49104;BME280;34915;52.926;11.116;2023-04-08T07:24:14;102433.09;;;6.40;100.00
49104;BME280;34915;52.926;11.116;2023-04-08T07:26:40;102429.56;;;6.41;100.00
49104;BME280;34915;52.926;11.116;2023-04-08T07:29:06;102428.06;;;6.31;100.00
49104;BME280;34915;52.926;11.116;2023-04-08T07:31:32;102428.50;;;6.48;100.00
49104;BME280;34915;52.926;11.116;2023-04-08T07:33:57;102431.22;;;6.45;100.00
49104;BME280;34915;52.926;11.116;2023-04-08T07:36:23;102433.63;;;6.52;100.00
49104;BME280;34915;52.926;11.116;2023-04-08T07:38:49;102431.28;;;6.42;100.00
49104;BME280;34915;52.926;11.116;2023-04-08T07:41:14;102427.72;;;6.43;100.00
49104;BME280;34915;52.926;11.116;2023-04-08T07:43:40;102438.25;;;6.43;100.00
49104;BME280;34915;52.926;11.116;2023-04-08T07:46:06;102443.84;;;6.31;100.00
49104;BME280;34915;52.926;11.116;2023-04-08T07:48:33;102436.84;;;6.30;100.00
49104;BME280;34915;52.926;11.116;2023-04-08T07:51:03;102450.84;;;6.32;100.00
49104;BME280;34915;52.926;11.116;2023-04-08T07:53:29;102450.94;;;6.29;100.00
49104;BME280;34915;52.926;11.116;2023-04-08T07:55:55;102453.56;;;6.29;100.00
49104;BME280;34915;52.926;11.116;2023-04-08T07:58:20;102452.81;;;6.24;100.00
49104;BME280;34915;52.926;11.116;2023-04-08T08:00:46;102452.81;;;6.24;100.00
49104;BME280;34915;52.926;11.116;2023-04-08T08:03:11;102460.34;;;6.37;100.00
49104;BME280;34915;52.926;11.116;2023-04-08T08:05:37;102451.03;;;6.56;100.00
49104;BME280;34915;52.926;11.116;2023-04-08T08:08:02;102457.63;;;6.42;100.00
49104;BME280;34915;52.926;11.116;2023-04-08T08:10:28;102466.41;;;6.41;100.00
49104;BME280;34915;52.926;11.116;2023-04-08T08:12:54;102467.72;;;6.57;100.00
49104;BME280;34915;52.926;11.116;2023-04-08T08:15:20;102462.47;;;6.57;100.00
49104;BME280;34915;52.926;11.116;2023-04-08T08:17:45;102461.81;;;6.47;100.00
49104;BME280;34915;52.926;11.116;2023-04-08T08:20:11;102468.19;;;6.39;100.00
49104;BME280;34915;52.926;11.116;2023-04-08T08:22:37;102473.31;;;6.45;100.00
49104;BME280;34915;52.926;11.116;2023-04-08T08:25:04;102476.75;;;6.47;100.00
49104;BME280;34915;52.926;11.116;2023-04-08T08:27:30;102485.38;;;6.52;100.00
49104;BME280;34915;52.926;11.116;2023-04-08T08:29:56;102481.88;;;6.53;100.00
49104;BME280;34915;52.926;11.116;2023-04-08T08:32:23;102481.94;;;6.50;100.00
49104;BME280;34915;52.926;11.116;2023-04-08T08:34:51;102481.09;;;6.49;100.00
49104;BME280;34915;52.926;11.116;2023-04-08T08:37:17;102485.13;;;6.61;100.00
49104;BME280;34915;52.926;11.116;2023-04-08T08:39:42;102485.59;;;6.76;100.00
49104;BME280;34915;52.926;11.116;2023-04-08T08:42:26;102488.69;;;6.60;100.00
49104;BME280;34915;52.926;11.116;2023-04-08T08:44:51;102484.44;;;6.54;100.00
49104;BME280;34915;52.926;11.116;2023-04-08T08:47:18;102492.41;;;6.53;100.00
49104;BME280;34915;52.926;11.116;2023-04-08T08:49:44;102487.13;;;6.53;100.00
49104;BME280;34915;52.926;11.116;2023-04-08T08:52:10;102491.78;;;6.43;100.00
49104;BME280;34915;52.926;11.116;2023-04-08T08:54:43;102493.03;;;6.61;100.00
49104;BME280;34915;52.926;11.116;2023-04-08T08:57:18;102502.59;;;6.65;100.00
49104;BME280;34915;52.926;11.116;2023-04-08T08:59:45;102498.38;;;6.58;100.00
49104;BME280;34915;52.926;11.116;2023-04-08T09:02:28;102499.56;;;6.48;100.00
49104;BME280;34915;52.926;11.116;2023-04-08T09:05:04;102501.22;;;6.50;100.00
49104;BME280;34915;52.926;11.116;2023-04-08T09:07:34;102495.91;;;6.52;100.00
49104;BME280;34915;52.926;11.116;2023-04-08T09:10:02;102499.19;;;6.61;100.00
49104;BME280;34915;52.926;11.116;2023-04-08T09:12:28;102498.97;;;6.69;100.00
49104;BME280;34915;52.926;11.116;2023-04-08T09:15:08;102500.13;;;6.59;100.00
49104;BME280;34915;52.926;11.116;2023-04-08T09:17:39;102502.25;;;6.77;100.00
49104;BME280;34915;52.926;11.116;2023-04-08T09:20:12;102496.81;;;6.83;100.00
49104;BME280;34915;52.926;11.116;2023-04-08T09:22:56;102515.16;;;6.87;100.00
49104;BME280;34915;52.926;11.116;2023-04-08T09:25:27;102507.03;;;6.94;100.00
49104;BME280;34915;52.926;11.116;2023-04-08T09:27:53;102516.78;;;6.91;100.00
49104;BME280;34915;52.926;11.116;2023-04-08T09:30:21;102519.88;;;6.75;100.00
49104;BME280;34915;52.926;11.116;2023-04-08T09:32:48;102523.88;;;6.89;100.00
49104;BME280;34915;52.926;11.116;2023-04-08T09:35:14;102515.84;;;6.93;100.00
49104;BME280;34915;52.926;11.116;2023-04-08T09:37:42;102531.66;;;6.93;100.00
49104;BME280;34915;52.926;11.116;2023-04-08T09:40:08;102535.34;;;6.86;100.00
49104;BME280;34915;52.926;11.116;2023-04-08T09:42:35;102540.53;;;6.89;100.00
49104;BME280;34915;52.926;11.116;2023-04-08T09:45:05;102541.91;;;7.02;100.00
49104;BME280;34915;52.926;11.116;2023-04-08T09:48:11;102544.78;;;6.95;100.00
49104;BME280;34915;52.926;11.116;2023-04-08T09:50:37;102543.75;;;7.00;100.00
49104;BME280;34915;52.926;11.116;2023-04-08T09:53:19;102544.72;;;6.96;100.00
49104;BME280;34915;52.926;11.116;2023-04-08T09:55:49;102541.16;;;6.99;100.00
49104;BME280;34915;52.926;11.116;2023-04-08T09:58:38;102542.81;;;7.01;100.00
49104;BME280;34915;52.926;11.116;2023-04-08T10:01:09;102538.38;;;7.03;100.00
49104;BME280;34915;52.926;11.116;2023-04-08T10:03:52;102535.97;;;6.96;100.00
49104;BME280;34915;52.926;11.116;2023-04-08T10:06:19;102547.38;;;6.96;100.00
49104;BME280;34915;52.926;11.116;2023-04-08T10:08:46;102550.09;;;6.93;100.00
49104;BME280;34915;52.926;11.116;2023-04-08T10:11:14;102549.00;;;7.00;100.00
49104;BME280;34915;52.926;11.116;2023-04-08T10:13:41;102554.91;;;7.08;100.00
49104;BME280;34915;52.926;11.116;2023-04-08T10:16:23;102552.72;;;7.24;100.00
49104;BME280;34915;52.926;11.116;2023-04-08T10:18:52;102548.00;;;7.04;100.00
49104;BME280;34915;52.926;11.116;2023-04-08T10:21:38;102554.19;;;7.03;100.00
49104;BME280;34915;52.926;11.116;2023-04-08T10:24:09;102554.19;;;7.03;100.00
49104;BME280;34915;52.926;11.116;2023-04-08T10:26:40;102556.06;;;6.98;100.00
49104;BME280;34915;52.926;11.116;2023-04-08T10:31:44;102568.00;;;7.11;100.00
49104;BME280;34915;52.926;11.116;2023-04-08T10:34:26;102554.75;;;7.14;100.00
49104;BME280;34915;52.926;11.116;2023-04-08T10:36:54;102562.31;;;7.26;100.00
49104;BME280;34915;52.926;11.116;2023-04-08T10:39:20;102552.88;;;7.19;100.00
49104;BME280;34915;52.926;11.116;2023-04-08T10:41:48;102553.72;;;7.20;100.00
49104;BME280;34915;52.926;11.116;2023-04-08T10:44:26;102566.13;;;7.16;100.00
49104;BME280;34915;52.926;11.116;2023-04-08T10:46:53;102560.16;;;7.10;100.00
49104;BME280;34915;52.926;11.116;2023-04-08T10:49:19;102549.66;;;7.08;100.00
49104;BME280;34915;52.926;11.116;2023-04-08T10:51:46;102556.63;;;7.11;100.00
49104;BME280;34915;52.926;11.116;2023-04-08T10:54:14;102561.03;;;7.10;100.00
49104;BME280;34915;52.926;11.116;2023-04-08T10:56:51;102560.59;;;7.25;100.00
49104;BME280;34915;52.926;11.116;2023-04-08T10:59:28;102557.28;;;7.17;100.00
49104;BME280;34915;52.926;11.116;2023-04-08T11:01:55;102555.25;;;7.28;100.00
49104;BME280;34915;52.926;11.116;2023-04-08T11:04:21;102556.88;;;7.32;100.00
49104;BME280;34915;52.926;11.116;2023-04-08T11:06:49;102544.59;;;7.31;100.00
49104;BME280;34915;52.926;11.116;2023-04-08T11:09:15;102547.09;;;7.35;100.00
49104;BME280;34915;52.926;11.116;2023-04-08T11:11:42;102547.53;;;7.51;100.00
49104;BME280;34915;52.926;11.116;2023-04-08T11:14:08;102550.22;;;7.48;100.00
49104;BME280;34915;52.926;11.116;2023-04-08T11:16:36;102561.97;;;7.38;100.00
49104;BME280;34915;52.926;11.116;2023-04-08T11:19:03;102556.97;;;7.29;100.00
49104;BME280;34915;52.926;11.116;2023-04-08T11:21:35;102558.97;;;7.50;100.00
49104;BME280;34915;52.926;11.116;2023-04-08T11:24:06;102552.81;;;7.51;100.00
49104;BME280;34915;52.926;11.116;2023-04-08T11:26:35;102549.69;;;7.37;100.00
49104;BME280;34915;52.926;11.116;2023-04-08T11:29:01;102551.53;;;7.35;100.00
49104;BME280;34915;52.926;11.116;2023-04-08T11:31:27;102542.50;;;7.42;100.00
49104;BME280;34915;52.926;11.116;2023-04-08T11:33:53;102535.25;;;7.50;100.00
49104;BME280;34915;52.926;11.116;2023-04-08T11:36:20;102535.81;;;7.32;100.00
49104;BME280;34915;52.926;11.116;2023-04-08T11:38:46;102538.69;;;7.52;100.00
49104;BME280;34915;52.926;11.116;2023-04-08T11:41:12;102538.22;;;7.67;100.00
49104;BME280;34915;52.926;11.116;2023-04-08T11:43:38;102542.03;;;7.85;100.00
49104;BME280;34915;52.926;11.116;2023-04-08T11:46:11;102550.03;;;7.82;100.00
49104;BME280;34915;52.926;11.116;2023-04-08T11:48:38;102541.41;;;7.78;100.00
49104;BME280;34915;52.926;11.116;2023-04-08T11:51:07;102535.09;;;7.83;100.00
49104;BME280;34915;52.926;11.116;2023-04-08T11:53:34;102541.22;;;8.12;100.00
49104;BME280;34915;52.926;11.116;2023-04-08T11:56:17;102542.09;;;8.38;100.00
49104;BME280;34915;52.926;11.116;2023-04-08T11:58:43;102541.28;;;8.35;100.00
49104;BME280;34915;52.926;11.116;2023-04-08T12:01:09;102537.75;;;8.36;100.00
49104;BME280;34915;52.926;11.116;2023-04-08T12:03:35;102544.78;;;8.37;100.00
49104;BME280;34915;52.926;11.116;2023-04-08T12:06:00;102549.84;;;8.43;100.00
49104;BME280;34915;52.926;11.116;2023-04-08T12:08:26;102554.91;;;8.49;100.00
49104;BME280;34915;52.926;11.116;2023-04-08T12:10:52;102550.34;;;8.54;100.00
49104;BME280;34915;52.926;11.116;2023-04-08T12:13:20;102557.44;;;8.26;100.00
49104;BME280;34915;52.926;11.116;2023-04-08T12:15:46;102559.69;;;8.12;100.00
49104;BME280;34915;52.926;11.116;2023-04-08T12:18:11;102556.03;;;8.16;100.00
49104;BME280;34915;52.926;11.116;2023-04-08T12:20:37;102551.47;;;8.21;100.00
49104;BME280;34915;52.926;11.116;2023-04-08T12:23:02;102558.22;;;8.30;100.00
49104;BME280;34915;52.926;11.116;2023-04-08T12:25:28;102552.84;;;8.33;100.00
49104;BME280;34915;52.926;11.116;2023-04-08T12:27:55;102559.28;;;8.24;100.00
49104;BME280;34915;52.926;11.116;2023-04-08T12:30:21;102556.97;;;8.41;100.00
49104;BME280;34915;52.926;11.116;2023-04-08T12:32:46;102552.03;;;8.56;100.00
49104;BME280;34915;52.926;11.116;2023-04-08T12:35:12;102554.81;;;8.52;100.00
49104;BME280;34915;52.926;11.116;2023-04-08T12:37:38;102552.69;;;8.63;100.00
49104;BME280;34915;52.926;11.116;2023-04-08T12:40:04;102559.88;;;8.58;100.00
49104;BME280;34915;52.926;11.116;2023-04-08T12:42:30;102558.16;;;8.57;100.00
49104;BME280;34915;52.926;11.116;2023-04-08T12:44:55;102557.56;;;8.75;100.00
49104;BME280;34915;52.926;11.116;2023-04-08T12:47:22;102554.44;;;8.62;100.00
49104;BME280;34915;52.926;11.116;2023-04-08T12:49:47;102563.25;;;8.63;100.00